createdAt,value
2022-11-18T00:00:49.509Z,32.28
2022-11-18T00:03:19.369Z,34.08
2022-11-18T00:05:55.483Z,28.90
2022-11-18T00:08:25.916Z,28.00
2022-11-18T00:10:54.653Z,22.50
2022-11-18T00:13:42.183Z,24.05
2022-11-18T00:16:14.072Z,27.73
2022-11-18T00:18:42.715Z,28.55
2022-11-18T00:21:13.665Z,25.95
2022-11-18T00:23:42.488Z,21.27
2022-11-18T00:26:14.584Z,22.83
2022-11-18T00:28:44.167Z,24.95
2022-11-18T00:31:15.600Z,20.23
2022-11-18T00:33:44.269Z,26.23
2022-11-18T00:36:14.533Z,26.27
2022-11-18T00:38:44.324Z,26.35
2022-11-18T00:41:16.384Z,24.88
2022-11-18T00:43:43.837Z,23.55
2022-11-18T00:46:15.580Z,18.42
2022-11-18T00:48:45.117Z,21.02
2022-11-18T00:51:16.927Z,17.60
2022-11-18T00:53:47.794Z,24.13
2022-11-18T00:56:16.175Z,15.35
2022-11-18T00:58:45.595Z,17.77
2022-11-18T01:01:15.969Z,22.17
2022-11-18T01:03:46.794Z,22.90
2022-11-18T01:06:15.653Z,18.15
2022-11-18T01:08:45.405Z,19.58
2022-11-18T01:11:30.515Z,15.73
2022-11-18T01:13:59.345Z,18.35
2022-11-18T01:16:29.844Z,21.50
2022-11-18T01:18:59.348Z,20.05
2022-11-18T01:21:27.853Z,15.77
2022-11-18T01:23:56.317Z,18.23
2022-11-18T01:26:24.705Z,12.38
2022-11-18T01:28:56.810Z,15.93
2022-11-18T01:31:25.977Z,13.68
2022-11-18T01:33:55.850Z,13.85
2022-11-18T01:36:28.392Z,11.25
2022-11-18T01:38:57.935Z,14.95
2022-11-18T01:41:28.425Z,16.83
2022-11-18T01:43:59.714Z,10.68
2022-11-18T01:46:30.299Z,15.80
2022-11-18T01:49:07.247Z,15.25
2022-11-18T01:51:39.272Z,14.18
2022-11-18T01:54:13.361Z,12.63
2022-11-18T01:56:47.621Z,10.82
2022-11-18T01:59:20.924Z,9.50
2022-11-18T02:01:50.787Z,13.82
2022-11-18T02:04:23.210Z,12.73
2022-11-18T02:06:53.059Z,8.95
2022-11-18T02:09:23.414Z,10.85
2022-11-18T02:11:54.232Z,11.88
2022-11-18T02:14:28.003Z,13.05
2022-11-18T02:17:06.045Z,12.18
2022-11-18T02:20:06.787Z,12.35
2022-11-18T02:22:57.681Z,13.82
2022-11-18T02:25:41.373Z,12.38
2022-11-18T02:28:43.967Z,9.38
2022-11-18T02:31:19.614Z,11.48
2022-11-18T02:33:56.013Z,11.75
2022-11-18T02:36:29.884Z,11.10
2022-11-18T02:39:04.828Z,11.07
2022-11-18T02:41:36.967Z,10.43
2022-11-18T02:44:09.856Z,10.07
2022-11-18T02:46:44.731Z,8.55
2022-11-18T02:49:21.730Z,9.30
2022-11-18T02:51:51.814Z,10.32
2022-11-18T02:54:24.928Z,6.28
2022-11-18T02:56:55.830Z,7.70
2022-11-18T02:59:24.950Z,7.50
2022-11-18T03:01:55.071Z,7.10
2022-11-18T03:04:27.765Z,6.63
2022-11-18T03:07:06.107Z,5.03
2022-11-18T03:09:39.441Z,6.45
2022-11-18T03:12:15.911Z,5.18
2022-11-18T03:14:52.010Z,4.80
2022-11-18T03:17:34.719Z,5.13
2022-11-18T03:20:14.070Z,7.10
2022-11-18T03:22:50.060Z,5.78
2022-11-18T03:25:23.588Z,6.05
2022-11-18T03:28:00.063Z,7.18
2022-11-18T03:30:31.508Z,5.07
2022-11-18T03:33:06.484Z,6.60
2022-11-18T03:35:38.537Z,3.33
2022-11-18T03:38:13.052Z,7.75
2022-11-18T03:40:46.626Z,5.53
2022-11-18T03:43:21.439Z,6.50
2022-11-18T03:45:56.433Z,4.00
2022-11-18T03:48:31.443Z,6.43
2022-11-18T03:51:04.354Z,4.80
2022-11-18T03:53:38.454Z,4.72
2022-11-18T03:56:17.180Z,4.05
2022-11-18T03:58:54.561Z,5.82
2022-11-18T04:01:31.072Z,6.43
2022-11-18T04:04:01.458Z,5.03
2022-11-18T04:06:39.529Z,3.20
2022-11-18T04:09:14.086Z,4.70
2022-11-18T04:12:05.391Z,6.55
2022-11-18T04:14:35.744Z,3.78
2022-11-18T04:17:11.344Z,7.07
2022-11-18T04:19:41.871Z,8.02
2022-11-18T04:22:11.610Z,7.40
2022-11-18T04:24:40.921Z,8.52
2022-11-18T04:27:09.974Z,5.05
2022-11-18T04:29:39.113Z,7.65
2022-11-18T04:32:09.134Z,12.50
2022-11-18T04:34:38.630Z,9.10
2022-11-18T04:37:14.879Z,10.23
2022-11-18T04:39:43.612Z,10.27
2022-11-18T04:42:11.984Z,10.02
2022-11-18T04:44:46.730Z,8.05
2022-11-18T04:47:15.230Z,9.40
2022-11-18T04:49:44.175Z,7.47
2022-11-18T04:52:13.107Z,9.82
2022-11-18T04:54:43.100Z,9.35
2022-11-18T04:57:11.826Z,10.32
2022-11-18T04:59:40.644Z,10.38
2022-11-18T05:02:09.239Z,12.95
2022-11-18T05:04:37.852Z,8.13
2022-11-18T05:07:08.035Z,7.40
2022-11-18T05:09:37.787Z,11.20
2022-11-18T05:12:29.389Z,10.10
2022-11-18T05:14:58.074Z,6.63
2022-11-18T05:17:26.649Z,10.13
2022-11-18T05:19:55.232Z,13.75
2022-11-18T05:22:23.872Z,15.18
2022-11-18T05:24:53.584Z,11.02
2022-11-18T05:27:23.967Z,15.05
2022-11-18T05:29:53.150Z,6.85
2022-11-18T05:32:21.938Z,14.48
2022-11-18T05:34:50.584Z,11.52
2022-11-18T05:37:19.234Z,11.55
2022-11-18T05:39:47.792Z,13.50
2022-11-18T05:42:33.812Z,11.73
2022-11-18T05:45:03.704Z,8.80
2022-11-18T05:47:53.679Z,7.63
2022-11-18T05:50:22.529Z,11.45
2022-11-18T05:52:51.329Z,14.57
2022-11-18T05:55:22.389Z,14.18
2022-11-18T05:57:55.766Z,8.98
2022-11-18T06:00:25.746Z,14.07
2022-11-18T06:02:57.236Z,12.57
2022-11-18T06:05:27.643Z,11.82
2022-11-18T06:07:59.569Z,10.85
2022-11-18T06:10:33.680Z,10.07
2022-11-18T06:13:08.354Z,12.40
2022-11-18T06:15:42.192Z,11.98
2022-11-18T06:18:14.619Z,18.02
2022-11-18T06:20:43.934Z,6.20
2022-11-18T06:23:13.870Z,16.92
2022-11-18T06:25:43.167Z,14.38
2022-11-18T06:28:15.623Z,14.93
2022-11-18T06:30:45.774Z,17.55
2022-11-18T06:33:14.253Z,17.48
2022-11-18T06:35:43.801Z,18.33
2022-11-18T06:38:13.750Z,13.27
2022-11-18T06:40:45.148Z,16.15
2022-11-18T06:43:37.857Z,15.60
2022-11-18T06:46:27.673Z,15.13
2022-11-18T06:48:58.066Z,8.63
2022-11-18T06:51:27.598Z,16.08
2022-11-18T06:53:56.393Z,24.55
2022-11-18T06:56:25.411Z,21.25
2022-11-18T06:59:00.919Z,13.15
2022-11-18T07:01:32.672Z,15.07
2022-11-18T07:04:02.574Z,10.65
2022-11-18T07:06:33.685Z,13.75
2022-11-18T07:09:05.803Z,12.98
2022-11-18T07:11:35.334Z,11.30
2022-11-18T07:14:05.193Z,11.07
2022-11-18T07:16:38.621Z,16.10
2022-11-18T07:19:12.083Z,18.10
2022-11-18T07:21:41.477Z,14.93
2022-11-18T07:24:11.025Z,12.88
2022-11-18T07:26:39.885Z,11.32
2022-11-18T07:29:10.413Z,10.20
2022-11-18T07:31:41.322Z,15.52
2022-11-18T07:34:12.009Z,8.27
2022-11-18T07:36:40.767Z,12.27
2022-11-18T07:39:09.648Z,14.25
2022-11-18T07:41:41.016Z,10.02
2022-11-18T07:44:12.943Z,13.38
2022-11-18T07:46:43.085Z,9.30
2022-11-18T07:49:13.570Z,8.52
2022-11-18T07:51:42.421Z,11.73
2022-11-18T07:54:12.626Z,12.98
2022-11-18T07:56:41.723Z,17.13
2022-11-18T07:59:10.745Z,12.50
2022-11-18T08:01:39.872Z,15.68
2022-11-18T08:04:12.548Z,15.02
2022-11-18T08:06:42.026Z,15.15
2022-11-18T08:09:11.375Z,16.80
2022-11-18T08:11:41.190Z,11.25
2022-11-18T08:14:09.656Z,12.73
2022-11-18T08:16:38.625Z,15.90
2022-11-18T08:19:07.110Z,11.95
2022-11-18T08:21:37.228Z,10.30
2022-11-18T08:24:06.440Z,15.82
2022-11-18T08:26:35.507Z,16.50
2022-11-18T08:29:04.512Z,16.10
2022-11-18T08:31:33.062Z,10.40
2022-11-18T08:34:04.433Z,16.02
2022-11-18T08:36:34.474Z,11.65
2022-11-18T08:39:08.088Z,11.00
2022-11-18T08:41:39.051Z,10.73
2022-11-18T08:44:11.783Z,16.40
2022-11-18T08:46:40.412Z,11.25
2022-11-18T08:49:09.567Z,10.13
2022-11-18T08:51:38.194Z,11.77
2022-11-18T08:54:08.606Z,16.15
2022-11-18T08:56:37.149Z,17.42
2022-11-18T08:59:05.867Z,12.13
2022-11-18T09:01:34.427Z,14.65
2022-11-18T09:04:02.999Z,17.63
2022-11-18T09:06:31.696Z,12.35
2022-11-18T09:09:06.002Z,12.05
2022-11-18T09:11:37.075Z,18.92
2022-11-18T09:15:11.808Z,14.32
2022-11-18T09:16:54.431Z,14.10
2022-11-18T09:22:12.031Z,15.40
2022-11-18T09:24:41.205Z,14.80
2022-11-18T09:27:16.681Z,10.77
2022-11-18T09:29:46.162Z,14.40
2022-11-18T09:32:14.934Z,11.52
2022-11-18T09:34:44.823Z,14.70
2022-11-18T09:37:13.242Z,7.95
2022-11-18T09:43:32.420Z,20.88
2022-11-18T09:46:06.769Z,14.57
2022-11-18T09:48:56.828Z,12.23
2022-11-18T09:51:33.320Z,13.25
2022-11-18T09:54:05.010Z,13.25
2022-11-18T09:56:35.605Z,15.18
2022-11-18T09:59:11.109Z,11.38
2022-11-18T10:01:42.980Z,14.40
2022-11-18T10:04:17.924Z,12.68
2022-11-18T10:06:52.030Z,14.70
2022-11-18T10:09:38.247Z,12.23
2022-11-18T10:12:21.956Z,14.43
2022-11-18T10:15:20.026Z,12.55
2022-11-18T10:21:23.359Z,14.85
2022-11-18T10:24:02.792Z,10.63
2022-11-18T10:26:38.629Z,15.98
2022-11-18T10:29:10.443Z,11.10
2022-11-18T10:32:05.641Z,18.48
2022-11-18T10:34:55.086Z,12.32
2022-11-18T10:37:45.790Z,9.70
2022-11-18T10:40:27.542Z,11.98
2022-11-18T10:42:56.944Z,13.30
2022-11-18T10:45:35.113Z,13.43
2022-11-18T10:56:07.764Z,8.25
2022-11-18T11:56:52.670Z,8.65
2022-11-18T11:59:39.365Z,7.45
2022-11-18T12:02:48.599Z,9.63
2022-11-18T12:05:34.564Z,5.22
2022-11-18T12:08:50.660Z,7.00
2022-11-18T12:11:38.841Z,8.80
2022-11-18T12:18:10.815Z,9.25
2022-11-18T12:24:32.353Z,9.05
2022-11-18T12:27:08.727Z,10.50
2022-11-18T12:29:44.239Z,12.52
2022-11-18T12:32:35.424Z,7.07
2022-11-18T12:35:43.626Z,8.38
2022-11-18T12:38:57.645Z,7.28
2022-11-18T12:42:20.246Z,10.27
2022-11-18T12:45:40.428Z,7.25
2022-11-18T12:51:49.442Z,7.72
2022-11-18T12:54:36.493Z,10.50
2022-11-18T12:57:23.381Z,7.63
2022-11-18T13:00:52.882Z,13.63
2022-11-18T13:03:31.099Z,8.63
2022-11-18T13:06:10.258Z,7.32
2022-11-18T13:08:43.782Z,9.05
2022-11-18T13:11:46.252Z,13.35
2022-11-18T13:14:35.837Z,12.35
2022-11-18T13:17:45.036Z,9.23
2022-11-18T13:20:22.798Z,9.02
2022-11-18T13:23:10.205Z,6.43
2022-11-18T13:26:05.704Z,14.00
2022-11-18T13:29:09.594Z,8.70
2022-11-18T13:32:14.869Z,6.50
2022-11-18T13:34:53.615Z,8.80
2022-11-18T13:37:52.778Z,9.55
2022-11-18T13:41:04.749Z,13.07
2022-11-18T13:43:44.084Z,10.40
2022-11-18T13:46:45.634Z,9.32
2022-11-18T13:49:25.891Z,11.80
2022-11-18T13:51:55.750Z,9.13
2022-11-18T13:54:31.713Z,11.18
2022-11-18T13:57:51.344Z,9.60
2022-11-18T14:00:55.684Z,10.38
2022-11-18T14:03:29.322Z,10.75
2022-11-18T14:06:00.945Z,8.80
2022-11-18T14:08:33.365Z,8.55
2022-11-18T14:11:40.119Z,10.48
2022-11-18T14:14:34.788Z,8.48
2022-11-18T14:17:22.146Z,10.38
2022-11-18T14:19:59.745Z,9.02
2022-11-18T14:22:32.618Z,12.32
2022-11-18T14:25:19.961Z,7.75
2022-11-18T14:27:52.399Z,7.55
2022-11-18T14:30:58.313Z,8.93
2022-11-18T14:34:05.535Z,10.50
2022-11-18T14:36:41.241Z,8.85
2022-11-18T14:39:28.117Z,13.30
2022-11-18T14:42:26.162Z,9.65
2022-11-18T14:44:55.153Z,13.63
2022-11-18T14:47:30.606Z,11.35
2022-11-18T14:50:02.919Z,7.53
2022-11-18T14:52:42.436Z,7.35
2022-11-18T14:55:13.396Z,13.68
2022-11-18T14:57:48.474Z,9.27
2022-11-18T15:00:20.429Z,8.57
2022-11-18T15:02:50.271Z,9.48
2022-11-18T15:05:18.912Z,9.32
2022-11-18T15:07:47.662Z,9.27
2022-11-18T15:10:24.331Z,10.60
2022-11-18T15:13:00.707Z,12.95
2022-11-18T15:15:34.665Z,11.05
2022-11-18T15:18:05.757Z,8.98
2022-11-18T15:20:44.568Z,11.05
2022-11-18T15:23:33.385Z,7.90
2022-11-18T15:26:20.224Z,5.13
2022-11-18T15:28:57.033Z,8.82
2022-11-18T15:31:29.350Z,9.32
2022-11-18T15:34:14.599Z,11.00
2022-11-18T15:36:45.130Z,10.13
2022-11-18T15:43:02.950Z,8.10
2022-11-18T15:45:39.707Z,8.82
2022-11-18T15:48:08.623Z,9.05
2022-11-18T15:50:54.316Z,18.70
2022-11-18T15:53:23.208Z,10.90
2022-11-18T15:56:11.744Z,10.65
2022-11-18T15:58:56.802Z,9.82
2022-11-18T16:01:29.481Z,9.25
2022-11-18T16:04:01.455Z,8.98
2022-11-18T16:06:29.821Z,9.50
2022-11-18T16:09:00.170Z,7.53
2022-11-18T16:11:47.406Z,7.90
2022-11-18T16:14:19.310Z,11.52
2022-11-18T16:16:50.483Z,10.57
2022-11-18T16:19:21.050Z,10.32
2022-11-18T16:21:51.669Z,10.15
2022-11-18T16:24:22.612Z,17.48
2022-11-18T16:26:51.964Z,17.75
2022-11-18T16:29:23.229Z,13.27
2022-11-18T16:31:54.975Z,11.70
2022-11-18T16:34:24.877Z,15.90
2022-11-18T16:36:55.787Z,12.13
2022-11-18T16:39:26.404Z,8.55
2022-11-18T16:42:00.746Z,12.25
2022-11-18T16:44:37.535Z,10.57
2022-11-18T16:47:14.305Z,12.15
2022-11-18T16:49:44.776Z,13.68
2022-11-18T16:52:13.359Z,19.08
2022-11-18T16:54:45.751Z,22.00
2022-11-18T16:57:15.576Z,11.52
2022-11-18T16:59:46.104Z,14.40
2022-11-18T17:02:15.868Z,12.02
2022-11-18T17:04:45.654Z,13.18
2022-11-18T17:07:14.252Z,16.52
2022-11-18T17:09:42.633Z,12.00
2022-11-18T17:12:11.962Z,10.13
2022-11-18T17:14:40.647Z,11.48
2022-11-18T17:17:10.698Z,20.13
2022-11-18T17:19:39.186Z,24.85
2022-11-18T17:22:07.973Z,13.23
2022-11-18T17:24:36.847Z,14.25
2022-11-18T17:27:05.547Z,11.38
2022-11-18T17:29:35.036Z,14.45
2022-11-18T17:32:03.538Z,16.27
2022-11-18T17:34:34.173Z,14.95
2022-11-18T17:37:06.710Z,15.70
2022-11-18T17:39:36.086Z,14.55
2022-11-18T17:42:18.205Z,14.30
2022-11-18T17:44:47.865Z,14.85
2022-11-18T17:47:16.684Z,13.98
2022-11-18T17:49:46.674Z,13.75
2022-11-18T17:52:16.563Z,14.82
2022-11-18T17:54:45.091Z,16.90
2022-11-18T17:57:13.559Z,14.45
2022-11-18T17:59:42.146Z,12.75
2022-11-18T18:02:13.656Z,14.55
2022-11-18T18:04:42.688Z,11.43
2022-11-18T18:07:12.766Z,13.50
2022-11-18T18:09:41.517Z,12.85
2022-11-18T18:12:23.866Z,9.23
2022-11-18T18:14:52.923Z,14.10
2022-11-18T18:17:22.911Z,13.05
2022-11-18T18:19:52.333Z,12.45
2022-11-18T18:22:23.128Z,11.65
2022-11-18T18:24:52.764Z,9.32
2022-11-18T18:27:21.837Z,9.75
2022-11-18T18:29:50.193Z,13.32
2022-11-18T18:32:18.497Z,15.02
2022-11-18T18:34:48.119Z,11.93
2022-11-18T18:37:16.927Z,12.23
2022-11-18T18:39:48.099Z,14.90
2022-11-18T18:42:16.684Z,12.23
2022-11-18T18:45:03.102Z,18.55
2022-11-18T18:47:31.872Z,24.50
2022-11-18T18:50:00.418Z,13.88
2022-11-18T18:52:28.998Z,20.73
2022-11-18T18:55:00.298Z,26.98
2022-11-18T18:57:30.721Z,20.48
2022-11-18T18:59:59.383Z,27.90
2022-11-18T19:02:28.077Z,21.27
2022-11-18T19:04:56.621Z,25.35
2022-11-18T19:07:27.985Z,26.73
2022-11-18T19:09:56.934Z,20.80
2022-11-18T19:12:52.002Z,29.55
2022-11-18T19:15:23.405Z,33.22
2022-11-18T19:17:52.659Z,28.10
2022-11-18T19:20:37.004Z,21.20
2022-11-18T19:23:10.329Z,21.25
2022-11-18T19:25:39.480Z,19.98
2022-11-18T19:28:11.872Z,22.27
2022-11-18T19:30:40.486Z,22.45
2022-11-18T19:33:09.354Z,23.52
2022-11-18T19:35:38.697Z,19.20
2022-11-18T19:38:07.259Z,18.48
2022-11-18T19:40:36.346Z,21.40
2022-11-18T19:43:05.028Z,18.25
2022-11-18T19:45:36.181Z,21.63
2022-11-18T19:48:04.763Z,23.77
2022-11-18T19:50:33.397Z,23.98
2022-11-18T19:53:22.172Z,21.15
2022-11-18T19:55:55.958Z,19.27
2022-11-18T19:58:25.260Z,26.67
2022-11-18T20:00:55.396Z,21.27
2022-11-18T20:03:23.845Z,21.52
2022-11-18T20:05:55.651Z,17.27
2022-11-18T20:08:25.658Z,20.13
2022-11-18T20:10:54.533Z,24.98
2022-11-18T20:13:23.431Z,19.33
2022-11-18T20:15:53.456Z,22.98
2022-11-18T20:18:25.685Z,27.42
2022-11-18T20:20:55.428Z,27.77
2022-11-18T20:23:25.631Z,21.50
2022-11-18T20:25:54.712Z,24.55
2022-11-18T20:28:23.195Z,26.23
2022-11-18T20:30:56.391Z,21.17
2022-11-18T20:33:28.110Z,20.73
2022-11-18T20:36:02.879Z,18.77
2022-11-18T20:38:32.819Z,17.05
2022-11-18T20:41:03.898Z,17.77
2022-11-18T20:43:35.427Z,18.80
2022-11-18T20:46:14.597Z,21.00
2022-11-18T20:48:49.506Z,19.52
2022-11-18T20:51:23.967Z,24.33
2022-11-18T20:53:54.113Z,17.58
2022-11-18T20:56:26.167Z,21.55
2022-11-18T20:58:55.398Z,20.92
2022-11-18T21:01:26.247Z,17.63
2022-11-18T21:03:59.332Z,24.42
2022-11-18T21:06:30.361Z,18.30
2022-11-18T21:09:01.388Z,18.40
2022-11-18T21:11:32.460Z,17.95
2022-11-18T21:14:24.324Z,19.95
2022-11-18T21:16:55.629Z,22.48
2022-11-18T21:19:28.195Z,20.00
2022-11-18T21:21:56.903Z,20.38
2022-11-18T21:24:29.219Z,22.13
2022-11-18T21:26:59.014Z,24.20
2022-11-18T21:29:29.524Z,24.48
2022-11-18T21:31:58.210Z,20.48
2022-11-18T21:34:28.538Z,23.65
2022-11-18T21:36:57.212Z,20.73
2022-11-18T21:39:26.131Z,22.52
2022-11-18T21:41:57.138Z,20.50
2022-11-18T21:44:28.737Z,26.02
2022-11-18T21:46:57.908Z,20.15
2022-11-18T21:49:28.767Z,27.17
2022-11-18T21:51:57.302Z,22.58
2022-11-18T21:54:25.857Z,22.73
2022-11-18T21:56:54.825Z,24.05
2022-11-18T21:59:24.357Z,32.63
2022-11-18T22:01:53.330Z,26.48
2022-11-18T22:04:38.749Z,20.15
2022-11-18T22:07:08.622Z,27.90
2022-11-18T22:09:37.281Z,23.45
2022-11-18T22:12:08.296Z,23.63
2022-11-18T22:14:37.326Z,22.08
2022-11-18T22:17:06.857Z,25.50
2022-11-18T22:19:35.662Z,26.23
2022-11-18T22:22:05.339Z,23.50
2022-11-18T22:24:35.622Z,24.23
2022-11-18T22:27:09.915Z,20.27
2022-11-18T22:29:40.052Z,22.75
2022-11-18T22:32:08.477Z,17.83
2022-11-18T22:34:37.477Z,20.63
2022-11-18T22:37:05.908Z,18.83
2022-11-18T22:39:35.999Z,19.08
2022-11-18T22:42:22.069Z,18.80
2022-11-18T22:44:51.086Z,15.80
2022-11-18T22:47:19.593Z,17.50
2022-11-18T22:49:52.093Z,23.15
2022-11-18T22:52:22.067Z,20.13
2022-11-18T22:54:52.100Z,21.73
2022-11-18T22:57:20.734Z,19.92
2022-11-18T22:59:49.085Z,21.23
2022-11-18T23:02:17.585Z,22.05
2022-11-18T23:04:46.052Z,23.42
2022-11-18T23:07:14.720Z,22.48
2022-11-18T23:09:44.206Z,17.92
2022-11-18T23:12:31.739Z,22.80
2022-11-18T23:15:00.326Z,23.55
2022-11-18T23:17:28.591Z,21.27
2022-11-18T23:19:57.161Z,18.58
2022-11-18T23:22:25.819Z,26.52
2022-11-18T23:24:54.589Z,27.52
2022-11-18T23:27:24.970Z,23.23
2022-11-18T23:29:53.668Z,18.17
2022-11-18T23:32:22.376Z,22.95
2022-11-18T23:34:50.832Z,18.13
2022-11-18T23:37:19.581Z,19.85
2022-11-18T23:39:47.899Z,20.48
2022-11-18T23:42:16.292Z,19.40
2022-11-18T23:44:46.616Z,21.00
2022-11-18T23:47:15.236Z,17.42
2022-11-18T23:49:43.692Z,15.55
2022-11-18T23:52:12.890Z,19.05
2022-11-18T23:54:41.493Z,20.58
2022-11-18T23:57:09.878Z,20.92
2022-11-18T23:59:38.161Z,23.02
